5MD9 weather

Suburban Heliport
Bethesda, Maryland, United States

Public forecast

Using degrees Fahrenheit for public forecast. Weather courtesy of forecast.io.

Closest aviation weather report (METAR) to Suburban Heliport

Closest report is College Park Airport, 8.8 nm (16.3 km) E. Retrieved 2020/02/17 20:28 UTC (30 minutes ago):

KCGS 172028Z AUTO 11005KT 10SM CLR 12/M07 A3023 RMK AO1 T01191070

Closest aviation forecast (TAF) to Suburban Heliport

Closest forecast is Ronald Reagan Washington National Airport, 9.3 nm (17.3 km) SSE. Retrieved 2020/02/17 18:24 UTC (3 hours ago):

TAF KDCA 171723Z 1718/1824 05004KT P6SM SCT250 FM172300 09004KT P6SM BKN250 FM181600 18007KT P6SM BKN030 FM181900 21008KT P6SM BKN015 FM182100 22008KT P6SM -SHRA OVC020 FM182300 25006KT 6SM -RA OVC015